Terminal Aerodrome Forecast
Issued by NWS

Home | Current Version | Previous Version | Text Only | Print | Product List | Glossary On
Versions: 1 2 3 4 5 6 7 8 9 10 11 12 13 14 15 16
000
FTAK31 PANC 311553 AAA
TAFADU
TAF AMD
PADU 311553Z 3116/0112 23024G46KT 6SM -RA SCT015 OVC035
     FM311800 24034G48KT 6SM -SHRA SCT015 OVC025
     FM312200 25025G35KT 6SM -SHRA SCT025 OVC035
     FM010800 27020G30KT 6SM -RA SCT015 OVC025=

USA.gov is the U.S. government's official web portal to all federal, state and local government web resources and services.